Time;durP1;ratioP1;P1;durP2;ratioP2;P2;SDS_P1;SDS_P2;PMS_P1;PMS_P2;Temp;Humidity;BMP_temperature;BMP_pressure;BME280_temperature;BME280_humidity;BME280_pressure;Samples;Min_cycle;Max_cycle;Signal;HPM_P1;HPM_P2
2023/04/20 00:00:14;;;;;;;;;;;;;;;13.87;nan;102193.28;5035200;28;19927;-89
2023/04/20 00:02:42;;;;;;;;;;;;;;;13.86;nan;102183.56;5033784;28;19927;-89
2023/04/20 00:05:09;;;;;;;;;;;;;;;13.86;nan;102180.84;5034662;28;19923;-89
2023/04/20 00:07:34;;;;;;;;;;;;;;;13.87;nan;102174.41;5040843;28;19921;-90
2023/04/20 00:10:00;;;;;;;;;;;;;;;13.89;nan;102185.78;5036646;28;19917;-90
2023/04/20 00:12:25;;;;;;;;;;;;;;;13.89;nan;102188.47;5031782;28;19917;-89
2023/04/20 00:14:53;;;;;;;;;;;;;;;13.89;nan;102185.78;5037188;28;19917;-90
2023/04/20 00:17:18;;;;;;;;;;;;;;;13.88;nan;102192.22;5037668;28;19922;-89
2023/04/20 00:19:45;;;;;;;;;;;;;;;13.89;nan;102196.53;5037036;28;19924;-90
2023/04/20 00:22:10;;;;;;;;;;;;;;;13.88;nan;102197.59;5041825;28;19917;-89
2023/04/20 00:24:36;;;;;;;;;;;;;;;13.88;nan;102211.06;5034493;28;20374;-90
2023/04/20 00:27:01;;;;;;;;;;;;;;;13.89;nan;102191.16;5034740;28;19917;-89
2023/04/20 00:29:29;;;;;;;;;;;;;;;13.86;nan;102186.25;5023088;28;20003;-91
2023/04/20 00:31:54;;;;;;;;;;;;;;;13.88;nan;102184.13;5034369;28;20371;-90
2023/04/20 00:34:20;;;;;;;;;;;;;;;13.90;nan;102184.72;5033990;28;19924;-90
2023/04/20 00:36:45;;;;;;;;;;;;;;;13.89;nan;102183.91;5032691;28;19925;-89
2023/04/20 00:39:11;;;;;;;;;;;;;;;13.87;nan;102175.22;5034384;28;19917;-88
2023/04/20 00:41:43;;;;;;;;;;;;;;;13.87;nan;102172.53;5034626;28;20366;-89
2023/04/20 00:44:12;;;;;;;;;;;;;;;13.85;nan;102177.34;5033212;28;20393;-90
2023/04/20 00:46:38;;;;;;;;;;;;;;;13.85;nan;102169.25;5034299;28;19937;-90
2023/04/20 00:49:04;;;;;;;;;;;;;;;13.89;nan;102175.00;5032292;28;20375;-89
2023/04/20 00:51:30;;;;;;;;;;;;;;;13.91;nan;102181.78;5034118;28;19913;-89
2023/04/20 00:53:56;;;;;;;;;;;;;;;13.90;nan;102174.75;5033879;28;19917;-89
2023/04/20 00:56:22;;;;;;;;;;;;;;;13.89;nan;102175.00;5033320;28;19969;-89
2023/04/20 00:58:47;;;;;;;;;;;;;;;13.88;nan;102181.44;5023619;28;19923;-91
2023/04/20 01:01:16;;;;;;;;;;;;;;;13.85;nan;102169.25;5022055;28;20051;-89
2023/04/20 01:03:44;;;;;;;;;;;;;;;13.87;nan;102169.03;5033834;28;20119;-90
2023/04/20 01:06:13;;;;;;;;;;;;;;;13.89;nan;102169.59;5033705;28;20370;-90
2023/04/20 01:08:49;;;;;;;;;;;;;;;13.90;nan;102166.66;5031869;28;19917;-89
2023/04/20 01:11:14;;;;;;;;;;;;;;;13.93;nan;102164.56;5033872;28;19919;-89
2023/04/20 01:13:40;;;;;;;;;;;;;;;13.90;nan;102161.28;5033933;28;19994;-89
2023/04/20 01:16:06;;;;;;;;;;;;;;;13.89;nan;102169.59;5032587;28;19921;-89
2023/04/20 01:18:47;;;;;;;;;;;;;;;13.88;nan;102162.56;5033075;28;19999;-89
2023/04/20 01:21:12;;;;;;;;;;;;;;;13.85;nan;102157.66;5032833;28;19917;-90
2023/04/20 01:23:38;;;;;;;;;;;;;;;13.84;nan;102156.84;5033179;28;19913;-90
2023/04/20 01:26:14;;;;;;;;;;;;;;;13.85;nan;102163.06;5033421;28;20337;-89
2023/04/20 01:28:40;;;;;;;;;;;;;;;13.87;nan;102166.31;5033789;28;19936;-89
2023/04/20 01:31:06;;;;;;;;;;;;;;;13.87;nan;102161.75;5033353;28;20408;-89
2023/04/20 01:33:31;;;;;;;;;;;;;;;13.87;nan;102163.63;5033365;28;19920;-91
2023/04/20 01:35:57;;;;;;;;;;;;;;;13.87;nan;102156.38;5033361;28;19920;-89
2023/04/20 01:38:23;;;;;;;;;;;;;;;13.87;nan;102161.75;5033006;28;19913;-91
2023/04/20 01:40:48;;;;;;;;;;;;;;;13.87;nan;102164.44;5033144;28;20004;-89
2023/04/20 01:43:16;;;;;;;;;;;;;;;13.89;nan;102158.81;5033106;28;20386;-89
2023/04/20 01:45:42;;;;;;;;;;;;;;;13.88;nan;102157.19;5033001;28;19913;-89
2023/04/20 01:48:07;;;;;;;;;;;;;;;13.86;nan;102162.00;5033367;28;19936;-89
2023/04/20 01:50:33;;;;;;;;;;;;;;;13.86;nan;102159.31;5032907;28;20047;-89
2023/04/20 01:52:58;;;;;;;;;;;;;;;13.87;nan;102161.75;5032498;28;19967;-89
2023/04/20 01:55:23;;;;;;;;;;;;;;;13.89;nan;102158.81;5033163;28;19995;-90
2023/04/20 01:57:49;;;;;;;;;;;;;;;13.90;nan;102166.66;5032529;28;20298;-89
2023/04/20 02:00:15;;;;;;;;;;;;;;;13.90;nan;102163.16;5031842;28;19913;-90
2023/04/20 02:02:40;;;;;;;;;;;;;;;13.91;nan;102165.63;5032736;28;19917;-89
2023/04/20 02:05:06;;;;;;;;;;;;;;;13.91;nan;102173.69;5031542;28;19913;-90
2023/04/20 02:07:31;;;;;;;;;;;;;;;13.92;nan;102169.13;5032110;28;19941;-89
2023/04/20 02:09:57;;;;;;;;;;;;;;;13.93;nan;102165.38;5032406;28;20094;-89
2023/04/20 02:12:22;;;;;;;;;;;;;;;13.92;nan;102161.03;5032432;28;20381;-90
2023/04/20 02:14:48;;;;;;;;;;;;;;;13.91;nan;102162.91;5032979;28;19983;-89
2023/04/20 02:17:13;;;;;;;;;;;;;;;13.91;nan;102162.09;5032704;28;19923;-90
2023/04/20 02:19:39;;;;;;;;;;;;;;;13.89;nan;102164.22;5032619;28;19920;-90
2023/04/20 02:22:05;;;;;;;;;;;;;;;13.88;nan;102155.31;5032820;28;19913;-89
2023/04/20 02:24:30;;;;;;;;;;;;;;;13.90;nan;102150.50;5032535;28;19917;-90
2023/04/20 02:26:58;;;;;;;;;;;;;;;13.90;nan;102161.28;5032894;28;20359;-90
2023/04/20 02:29:24;;;;;;;;;;;;;;;13.90;nan;102157.78;5033280;28;19920;-89
2023/04/20 02:31:51;;;;;;;;;;;;;;;13.90;nan;102157.78;5032997;28;19913;-89
2023/04/20 02:34:20;;;;;;;;;;;;;;;13.91;nan;102156.72;5035944;28;20344;-90
2023/04/20 02:36:46;;;;;;;;;;;;;;;13.94;nan;102158.94;5036836;28;19917;-89
2023/04/20 02:39:12;;;;;;;;;;;;;;;13.96;nan;102158.69;5036287;28;19913;-91
2023/04/20 02:41:37;;;;;;;;;;;;;;;13.95;nan;102151.66;5036721;28;19914;-89
2023/04/20 02:44:02;;;;;;;;;;;;;;;13.94;nan;102150.84;5036598;28;19919;-89
2023/04/20 02:46:28;;;;;;;;;;;;;;;13.94;nan;102152.72;5036342;28;20421;-91
2023/04/20 02:48:56;;;;;;;;;;;;;;;13.94;nan;102156.22;5036659;28;20273;-90
2023/04/20 02:51:22;;;;;;;;;;;;;;;13.94;nan;102155.41;5036608;28;19913;-90
2023/04/20 02:53:47;;;;;;;;;;;;;;;13.96;nan;102147.91;5036515;28;19967;-90
2023/04/20 02:56:13;;;;;;;;;;;;;;;13.98;nan;102156.56;5036661;28;19918;-91
2023/04/20 02:58:40;;;;;;;;;;;;;;;13.98;nan;102152.00;5035472;28;20434;-90
2023/04/20 03:01:06;;;;;;;;;;;;;;;13.95;nan;102148.97;5036438;28;19913;-89
2023/04/20 03:03:31;;;;;;;;;;;;;;;13.95;nan;102152.47;5035942;28;19920;-89
2023/04/20 03:05:57;;;;;;;;;;;;;;;13.97;nan;102154.94;5036261;28;19948;-89
2023/04/20 03:08:22;;;;;;;;;;;;;;;13.97;nan;102154.94;5035868;28;20008;-90
2023/04/20 03:10:48;;;;;;;;;;;;;;;13.98;nan;102159.28;5036251;28;20032;-89
2023/04/20 03:13:13;;;;;;;;;;;;;;;13.98;nan;102159.28;5035691;28;19920;-90
2023/04/20 03:15:39;;;;;;;;;;;;;;;13.98;nan;102149.31;5035064;28;19921;-91
2023/04/20 03:18:05;;;;;;;;;;;;;;;13.96;nan;102153.31;5034810;28;19923;-89
2023/04/20 03:20:31;;;;;;;;;;;;;;;13.94;nan;102148.16;5036273;28;19924;-89
2023/04/20 03:22:56;;;;;;;;;;;;;;;13.92;nan;102155.66;5036305;28;19917;-90
2023/04/20 03:25:22;;;;;;;;;;;;;;;13.93;nan;102161.84;5035947;28;19963;-90
2023/04/20 03:27:47;;;;;;;;;;;;;;;13.96;nan;102164.91;5035486;28;19913;-90
2023/04/20 03:30:15;;;;;;;;;;;;;;;13.98;nan;102161.97;5035506;28;19913;-90
2023/04/20 03:32:41;;;;;;;;;;;;;;;13.99;nan;102169.00;5035599;28;20649;-89
2023/04/20 03:35:07;;;;;;;;;;;;;;;14.00;nan;102166.06;5035978;28;19913;-89
2023/04/20 03:37:33;;;;;;;;;;;;;;;13.99;nan;102166.28;5035496;28;19921;-90
2023/04/20 03:39:58;;;;;;;;;;;;;;;13.99;nan;102166.28;5035642;28;19967;-90
2023/04/20 03:42:24;;;;;;;;;;;;;;;14.00;nan;102160.66;5036064;28;19913;-90
2023/04/20 03:44:50;;;;;;;;;;;;;;;14.01;nan;102156.13;5034774;28;19913;-90
2023/04/20 03:47:15;;;;;;;;;;;;;;;14.03;nan;102162.09;5035444;28;19913;-91
2023/04/20 03:49:41;;;;;;;;;;;;;;;14.03;nan;102160.22;5035942;28;19924;-89
2023/04/20 03:52:13;;;;;;;;;;;;;;;14.03;nan;102157.53;5035633;28;19913;-90
2023/04/20 03:54:56;;;;;;;;;;;;;;;14.05;nan;102149.19;5035725;28;19920;-90
2023/04/20 03:57:25;;;;;;;;;;;;;;;14.02;nan;102155.88;5035217;28;19917;-89
2023/04/20 03:59:50;;;;;;;;;;;;;;;14.00;nan;102152.59;5035599;28;20244;-90
2023/04/20 04:02:16;;;;;;;;;;;;;;;13.99;nan;102152.81;5035354;28;19999;-89
2023/04/20 04:04:42;;;;;;;;;;;;;;;13.99;nan;102153.63;5035271;28;19932;-90
2023/04/20 04:07:07;;;;;;;;;;;;;;;14.00;nan;102166.06;5035274;28;19959;-90
2023/04/20 04:09:32;;;;;;;;;;;;;;;14.01;nan;102162.34;5035466;28;20436;-91
2023/04/20 04:11:58;;;;;;;;;;;;;;;14.03;nan;102157.53;5038633;28;19913;-89
2023/04/20 04:14:23;;;;;;;;;;;;;;;14.06;nan;102165.13;5039052;28;19925;-89
2023/04/20 04:16:49;;;;;;;;;;;;;;;14.08;nan;102163.03;5031163;28;20041;-87
2023/04/20 04:19:14;;;;;;;;;;;;;;;14.09;nan;102161.97;5035237;28;19917;-88
2023/04/20 04:21:40;;;;;;;;;;;;;;;14.10;nan;102169.00;5031549;28;20265;-90
2023/04/20 04:24:06;;;;;;;;;;;;;;;14.11;nan;102170.63;5034582;28;20318;-89
2023/04/20 04:26:32;;;;;;;;;;;;;;;14.11;nan;102173.31;5033743;28;19917;-89
2023/04/20 04:28:58;;;;;;;;;;;;;;;14.11;nan;102167.09;5033119;28;20379;-89
2023/04/20 04:31:23;;;;;;;;;;;;;;;14.10;nan;102155.50;5036712;28;19917;-89
2023/04/20 04:33:49;;;;;;;;;;;;;;;14.12;nan;102152.56;5035292;28;19917;-89
2023/04/20 04:36:14;;;;;;;;;;;;;;;14.12;nan;102156.09;5029241;28;19921;-88
2023/04/20 04:38:47;;;;;;;;;;;;;;;14.10;nan;102152.00;5041062;28;19917;-89
2023/04/20 04:41:13;;;;;;;;;;;;;;;14.09;nan;102153.88;5038314;28;19970;-89
2023/04/20 04:43:40;;;;;;;;;;;;;;;14.09;nan;102151.19;5031681;28;19925;-88
2023/04/20 04:46:08;;;;;;;;;;;;;;;14.07;nan;102156.00;5030580;28;20067;-88
2023/04/20 04:48:34;;;;;;;;;;;;;;;14.05;nan;102160.81;5029663;28;19928;-88
2023/04/20 04:50:59;;;;;;;;;;;;;;;14.07;nan;102166.78;5035183;28;19917;-87
2023/04/20 04:53:27;;;;;;;;;;;;;;;14.12;nan;102174.97;5036084;28;19924;-88
2023/04/20 04:55:52;;;;;;;;;;;;;;;14.14;nan;102167.44;5032558;28;20004;-89
2023/04/20 04:58:18;;;;;;;;;;;;;;;14.17;nan;102171.53;5037171;28;20356;-88
2023/04/20 05:00:43;;;;;;;;;;;;;;;14.21;nan;102178.94;5039614;28;20544;-89
2023/04/20 05:03:09;;;;;;;;;;;;;;;14.23;nan;102180.56;5028831;28;20588;-89
2023/04/20 05:05:34;;;;;;;;;;;;;;;14.25;nan;102176.59;5036279;28;19921;-88
2023/04/20 05:07:59;;;;;;;;;;;;;;;14.26;nan;102174.72;5032329;28;19940;-89
2023/04/20 05:10:25;;;;;;;;;;;;;;;14.29;nan;102185.00;5033278;28;20386;-87
2023/04/20 05:12:51;;;;;;;;;;;;;;;14.30;nan;102183.94;5025559;28;19928;-89
2023/04/20 05:15:16;;;;;;;;;;;;;;;14.33;nan;102191.56;5030667;28;19917;-89
2023/04/20 05:17:42;;;;;;;;;;;;;;;14.38;nan;102194.38;5033413;28;19943;-88
2023/04/20 05:20:09;;;;;;;;;;;;;;;14.39;nan;102202.22;5037801;28;19917;-88
2023/04/20 05:22:34;;;;;;;;;;;;;;;14.41;nan;102202.00;5031798;28;19982;-89
2023/04/20 05:25:00;;;;;;;;;;;;;;;14.42;nan;102200.94;5035251;28;19917;-89
2023/04/20 05:27:25;;;;;;;;;;;;;;;14.44;nan;102217.72;5032031;28;20009;-89
2023/04/20 05:29:51;;;;;;;;;;;;;;;14.43;nan;102210.66;5029139;28;19925;-89
2023/04/20 05:32:16;;;;;;;;;;;;;;;14.44;nan;102226.63;5026374;28;20371;-89
2023/04/20 05:34:41;;;;;;;;;;;;;;;14.45;nan;102225.56;5035642;28;19949;-89
2023/04/20 05:37:08;;;;;;;;;;;;;;;14.46;nan;102229.91;5030705;28;20441;-89
2023/04/20 05:39:33;;;;;;;;;;;;;;;14.45;nan;102233.66;5034505;28;19928;-87
2023/04/20 05:41:59;;;;;;;;;;;;;;;14.44;nan;102234.72;5038252;28;19917;-89
2023/04/20 05:44:24;;;;;;;;;;;;;;;14.47;nan;102234.25;5031695;28;20015;-89
2023/04/20 05:46:50;;;;;;;;;;;;;;;14.47;nan;102233.41;5028720;28;20012;-89
2023/04/20 05:49:15;;;;;;;;;;;;;;;14.47;nan;102226.16;5029192;28;19971;-89
2023/04/20 05:51:40;;;;;;;;;;;;;;;14.49;nan;102218.63;5040297;28;19917;-89
2023/04/20 05:54:06;;;;;;;;;;;;;;;14.54;nan;102225.19;5037388;28;19925;-89
2023/04/20 05:56:31;;;;;;;;;;;;;;;14.58;nan;102231.75;5035157;28;20360;-89
2023/04/20 05:58:58;;;;;;;;;;;;;;;14.59;nan;102239.63;5032144;28;20346;-89
2023/04/20 06:01:23;;;;;;;;;;;;;;;14.58;nan;102229.88;5032995;28;19952;-87
2023/04/20 06:03:48;;;;;;;;;;;;;;;14.61;nan;102233.97;5029209;28;19976;-89
2023/04/20 06:06:14;;;;;;;;;;;;;;;14.65;nan;102252.13;5033815;28;19917;-87
2023/04/20 06:08:39;;;;;;;;;;;;;;;14.66;nan;102247.56;5025280;28;19963;-88
2023/04/20 06:11:05;;;;;;;;;;;;;;;14.66;nan;102250.25;5024591;28;19928;-88
2023/04/20 06:13:31;;;;;;;;;;;;;;;14.68;nan;102245.44;5032758;28;20320;-89
2023/04/20 06:15:56;;;;;;;;;;;;;;;14.72;nan;102239.34;5027345;28;19928;-88
2023/04/20 06:18:21;;;;;;;;;;;;;;;14.76;nan;102240.50;5031595;28;19917;-89
2023/04/20 06:20:47;;;;;;;;;;;;;;;14.79;nan;102245.41;5028633;28;20465;-88
2023/04/20 06:23:12;;;;;;;;;;;;;;;14.80;nan;102243.53;5029089;28;19925;-87
2023/04/20 06:25:40;;;;;;;;;;;;;;;14.81;nan;102243.28;5024895;28;20047;-89
2023/04/20 06:28:06;;;;;;;;;;;;;;;14.87;nan;102251.47;5029876;28;20019;-89
2023/04/20 06:30:35;;;;;;;;;;;;;;;14.90;nan;102248.31;5035937;28;19971;-88
2023/04/20 06:33:00;;;;;;;;;;;;;;;14.90;nan;102245.59;5030264;28;19923;-89
2023/04/20 06:35:26;;;;;;;;;;;;;;;14.91;nan;102252.66;5034701;28;19917;-89
2023/04/20 06:37:51;;;;;;;;;;;;;;;14.90;nan;102251.00;5032199;28;19971;-88
2023/04/20 06:40:17;;;;;;;;;;;;;;;14.93;nan;102250.53;5035358;28;19939;-88
2023/04/20 06:42:43;;;;;;;;;;;;;;;14.95;nan;102254.63;5026762;28;20066;-88
2023/04/20 06:45:08;;;;;;;;;;;;;;;14.98;nan;102237.13;5036885;28;19962;-88
2023/04/20 06:47:34;;;;;;;;;;;;;;;15.04;nan;102241.56;5034343;28;19924;-87
2023/04/20 06:50:00;;;;;;;;;;;;;;;15.08;nan;102240.88;5033166;28;19917;-87
2023/04/20 06:52:26;;;;;;;;;;;;;;;15.15;nan;102248.81;5033672;28;19975;-88
2023/04/20 06:54:51;;;;;;;;;;;;;;;15.22;nan;102252.16;5027243;28;20352;-87
2023/04/20 06:57:17;;;;;;;;;;;;;;;15.29;nan;102254.72;5028974;28;19937;-88
2023/04/20 06:59:42;;;;;;;;;;;;;;;15.36;nan;102248.09;5035492;28;19917;-88
2023/04/20 07:02:08;;;;;;;;;;;;;;;15.48;nan;102253.44;5033903;28;19917;-89
2023/04/20 07:04:36;;;;;;;;;;;;;;;15.60;nan;102261.50;5031850;28;20318;-88
2023/04/20 07:07:02;;;;;;;;;;;;;;;15.75;nan;102267.16;5026702;28;20276;-87
2023/04/20 07:09:27;;;;;;;;;;;;;;;15.86;nan;102268.16;5033639;28;19928;-89
2023/04/20 07:11:55;;;;;;;;;;;;;;;16.00;nan;102266.75;5030891;28;20002;-88
2023/04/20 07:14:20;;;;;;;;;;;;;;;16.14;nan;102262.59;5028916;28;19918;-89
2023/04/20 07:16:46;;;;;;;;;;;;;;;16.31;nan;102265.28;5032815;28;20079;-89
2023/04/20 07:19:19;;;;;;;;;;;;;;;16.41;nan;102265.44;5032431;28;19932;-89
2023/04/20 07:21:45;;;;;;;;;;;;;;;16.55;nan;102258.59;5034626;28;19917;-88
2023/04/20 07:24:10;;;;;;;;;;;;;;;16.68;nan;102256.59;5035015;28;19921;-88
2023/04/20 07:26:36;;;;;;;;;;;;;;;16.80;nan;102251.88;5031624;28;19917;-87
2023/04/20 07:29:01;;;;;;;;;;;;;;;16.89;nan;102255.78;5031169;28;19917;-87
2023/04/20 07:31:26;;;;;;;;;;;;;;;17.00;nan;102254.81;5029822;28;19921;-88
2023/04/20 07:33:52;;;;;;;;;;;;;;;17.04;nan;102258.63;5022209;28;19917;-89
2023/04/20 07:36:21;;;;;;;;;;;;;;;17.08;nan;102272.50;5039752;28;19921;-87
2023/04/20 07:38:47;;;;;;;;;;;;;;;17.07;nan;102271.69;5031790;28;19917;-88
2023/04/20 07:41:12;;;;;;;;;;;;;;;17.10;nan;102278.47;5034539;28;19917;-86
2023/04/20 07:43:38;;;;;;;;;;;;;;;17.17;nan;102271.78;5030689;28;20004;-88
2023/04/20 07:46:06;;;;;;;;;;;;;;;17.22;nan;102273.72;5026973;28;19921;-87
2023/04/20 07:48:37;;;;;;;;;;;;;;;17.32;nan;102278.44;5040149;28;19917;-88
2023/04/20 07:51:06;;;;;;;;;;;;;;;17.42;nan;102281.25;5032596;28;20016;-88
2023/04/20 07:53:32;;;;;;;;;;;;;;;17.53;nan;102282.97;5039125;28;19921;-89
2023/04/20 07:55:57;;;;;;;;;;;;;;;17.57;nan;102278.66;5040801;28;19927;-88
2023/04/20 07:58:28;;;;;;;;;;;;;;;17.66;nan;102276.31;5038102;28;19921;-87
2023/04/20 08:00:54;;;;;;;;;;;;;;;17.70;nan;102274.75;5032526;28;19964;-87
2023/04/20 08:03:19;;;;;;;;;;;;;;;17.81;nan;102276.47;5033116;28;20418;-87
2023/04/20 08:05:45;;;;;;;;;;;;;;;17.89;nan;102270.56;5033543;28;19947;-88
2023/04/20 08:08:10;;;;;;;;;;;;;;;17.97;nan;102263.84;5033422;28;19928;-87
2023/04/20 08:10:36;;;;;;;;;;;;;;;18.09;nan;102267.16;5038965;28;20027;-88
2023/04/20 08:13:01;;;;;;;;;;;;;;;18.21;nan;102272.41;5030536;28;19921;-88
2023/04/20 08:15:26;;;;;;;;;;;;;;;18.28;nan;102253.97;5029636;28;19935;-88
2023/04/20 08:17:52;;;;;;;;;;;;;;;18.39;nan;102256.50;5030276;28;20007;-88
2023/04/20 08:20:17;;;;;;;;;;;;;;;18.48;nan;102259.50;5030853;28;19920;-87
2023/04/20 08:22:43;;;;;;;;;;;;;;;18.61;nan;102269.06;5036792;28;19917;-87
2023/04/20 08:25:08;;;;;;;;;;;;;;;18.73;nan;102271.59;5031370;28;19940;-87
2023/04/20 08:27:34;;;;;;;;;;;;;;;18.85;nan;102266.75;5024377;28;19980;-87
2023/04/20 08:29:59;;;;;;;;;;;;;;;19.02;nan;102270.88;5029676;28;20371;-87
2023/04/20 08:32:25;;;;;;;;;;;;;;;19.23;nan;102268.22;5028104;28;20874;-87
2023/04/20 08:34:51;;;;;;;;;;;;;;;19.44;nan;102266.34;5028937;28;19921;-88
2023/04/20 08:37:17;;;;;;;;;;;;;;;19.64;nan;102266.38;5024324;28;19921;-87
2023/04/20 08:39:42;;;;;;;;;;;;;;;19.83;nan;102269.38;5032730;28;19971;-87
2023/04/20 08:42:08;;;;;;;;;;;;;;;20.03;nan;102265.81;5029193;28;19933;-87
2023/04/20 08:44:33;;;;;;;;;;;;;;;20.21;nan;102273.38;5043019;28;19980;-86
2023/04/20 08:46:58;;;;;;;;;;;;;;;20.29;nan;102269.28;5033224;28;20535;-87
2023/04/20 08:49:26;;;;;;;;;;;;;;;20.33;nan;102268.47;5031361;28;19921;-86
2023/04/20 08:51:51;;;;;;;;;;;;;;;20.49;nan;102266.53;5034501;28;19925;-86
2023/04/20 08:54:17;;;;;;;;;;;;;;;20.64;nan;102261.00;5026843;28;20024;-87
2023/04/20 08:56:44;;;;;;;;;;;;;;;20.79;nan;102258.22;5031156;28;19939;-87
2023/04/20 08:59:13;;;;;;;;;;;;;;;20.93;nan;102252.97;5028989;28;19994;-85
2023/04/20 09:01:40;;;;;;;;;;;;;;;20.94;nan;102246.44;5029807;28;19960;-86
2023/04/20 09:04:15;;;;;;;;;;;;;;;21.01;nan;102246.94;5022573;28;20358;-86
2023/04/20 09:07:08;;;;;;;;;;;;;;;21.07;nan;102248.53;5034527;28;19960;-87
2023/04/20 09:09:34;;;;;;;;;;;;;;;21.19;nan;102252.84;5031899;28;19964;-87
2023/04/20 09:12:03;;;;;;;;;;;;;;;21.34;nan;102250.81;5031590;28;20481;-87
2023/04/20 09:14:30;;;;;;;;;;;;;;;21.43;nan;102259.22;5029286;28;19925;-87
2023/04/20 09:16:59;;;;;;;;;;;;;;;21.51;nan;102263.25;5027026;28;20008;-87
2023/04/20 09:19:25;;;;;;;;;;;;;;;21.66;nan;102260.38;5033716;28;19921;-87
2023/04/20 09:21:53;;;;;;;;;;;;;;;21.83;nan;102255.31;5026594;28;19917;-87
2023/04/20 09:24:19;;;;;;;;;;;;;;;22.01;nan;102261.97;5024907;28;19917;-86
2023/04/20 09:26:46;;;;;;;;;;;;;;;22.15;nan;102256.69;5035167;28;19919;-86
2023/04/20 09:29:22;;;;;;;;;;;;;;;22.25;nan;102253.81;5032987;28;19917;-86
2023/04/20 09:31:47;;;;;;;;;;;;;;;22.36;nan;102260.00;5035129;28;19957;-87
2023/04/20 09:34:13;;;;;;;;;;;;;;;22.43;nan;102261.25;5029257;28;19948;-86
2023/04/20 09:36:40;;;;;;;;;;;;;;;22.52;nan;102258.72;5034740;28;19927;-88
2023/04/20 09:39:11;;;;;;;;;;;;;;;22.64;nan;102256.38;5030304;28;19913;-88
2023/04/20 09:41:37;;;;;;;;;;;;;;;22.79;nan;102266.28;5035036;28;19917;-88
2023/04/20 09:44:03;;;;;;;;;;;;;;;22.91;nan;102259.31;5036949;28;19924;-86
2023/04/20 09:46:32;;;;;;;;;;;;;;;23.01;nan;102258.38;5030342;28;19917;-87
2023/04/20 09:49:02;;;;;;;;;;;;;;;23.07;nan;102257.16;5036498;28;20286;-87
2023/04/20 09:51:28;;;;;;;;;;;;;;;23.14;nan;102252.13;5033886;28;20039;-86
2023/04/20 09:53:57;;;;;;;;;;;;;;;23.17;nan;102251.56;5033589;28;19987;-86
2023/04/20 09:56:23;;;;;;;;;;;;;;;23.29;nan;102248.34;5040445;28;20402;-87
2023/04/20 09:58:50;;;;;;;;;;;;;;;23.47;nan;102260.38;5033656;28;20399;-87
2023/04/20 10:01:15;;;;;;;;;;;;;;;23.63;nan;102250.03;5033568;28;20294;-87
2023/04/20 10:03:41;;;;;;;;;;;;;;;23.71;nan;102252.91;5028059;28;19921;-87
2023/04/20 10:06:27;;;;;;;;;;;;;;;23.79;nan;102254.13;5027681;28;19925;-86
2023/04/20 10:08:53;;;;;;;;;;;;;;;23.80;nan;102255.75;5031103;28;19932;-86
2023/04/20 10:11:24;;;;;;;;;;;;;;;23.86;nan;102249.06;5043668;28;19939;-86
2023/04/20 10:13:50;;;;;;;;;;;;;;;23.91;nan;102251.72;5034597;28;19917;-87
2023/04/20 10:16:19;;;;;;;;;;;;;;;23.98;nan;102237.63;5032516;28;20451;-86
2023/04/20 10:19:01;;;;;;;;;;;;;;;24.07;nan;102233.91;5034990;28;20379;-88
2023/04/20 10:21:28;;;;;;;;;;;;;;;24.12;nan;102238.47;5030314;28;19925;-87
2023/04/20 10:23:53;;;;;;;;;;;;;;;24.19;nan;102230.63;5031416;28;19985;-88
2023/04/20 10:26:19;;;;;;;;;;;;;;;24.29;nan;102235.97;5040751;28;19999;-87
2023/04/20 10:28:45;;;;;;;;;;;;;;;24.44;nan;102214.84;5041737;28;19924;-87
2023/04/20 10:31:15;;;;;;;;;;;;;;;24.59;nan;102222.72;5033314;28;20282;-89
2023/04/20 10:33:54;;;;;;;;;;;;;;;24.70;nan;102224.94;5032504;28;19983;-88
2023/04/20 10:36:30;;;;;;;;;;;;;;;24.69;nan;102217.03;5032002;28;19939;-88
2023/04/20 10:38:56;;;;;;;;;;;;;;;24.80;nan;102218.44;5036570;28;19916;-88
2023/04/20 10:41:22;;;;;;;;;;;;;;;24.90;nan;102217.38;5031464;28;19917;-88
2023/04/20 10:43:47;;;;;;;;;;;;;;;24.97;nan;102218.59;5030913;28;19917;-88
2023/04/20 10:46:17;;;;;;;;;;;;;;;25.07;nan;102216.75;5041467;28;19917;-88
2023/04/20 10:48:55;;;;;;;;;;;;;;;25.16;nan;102214.91;5045273;28;19924;-89
2023/04/20 10:51:21;;;;;;;;;;;;;;;25.24;nan;102217.69;5032137;28;19924;-88
2023/04/20 10:53:56;;;;;;;;;;;;;;;25.36;nan;102214.38;5030088;28;19917;-89
2023/04/20 10:56:21;;;;;;;;;;;;;;;25.44;nan;102215.56;5033236;28;19961;-88
2023/04/20 10:58:47;;;;;;;;;;;;;;;25.48;nan;102211.88;5030479;28;19979;-88
2023/04/20 11:01:16;;;;;;;;;;;;;;;25.52;nan;102203.84;5037707;28;19927;-86
2023/04/20 11:03:41;;;;;;;;;;;;;;;25.63;nan;102205.16;5038908;28;19921;-89
2023/04/20 11:06:06;;;;;;;;;;;;;;;25.73;nan;102201.41;5035891;28;19923;-89
2023/04/20 11:08:38;;;;;;;;;;;;;;;25.80;nan;102201.75;5036523;28;20011;-88
2023/04/20 11:11:04;;;;;;;;;;;;;;;25.89;nan;102194.38;5041163;28;19917;-88
2023/04/20 11:13:31;;;;;;;;;;;;;;;25.99;nan;102205.03;5030688;28;19921;-89
2023/04/20 11:15:57;;;;;;;;;;;;;;;26.08;nan;102203.16;5040332;28;20512;-88
2023/04/20 11:18:25;;;;;;;;;;;;;;;26.15;nan;102208.19;5036779;28;20000;-91
2023/04/20 11:20:51;;;;;;;;;;;;;;;26.20;nan;102200.59;5037443;28;19924;-88
2023/04/20 11:23:18;;;;;;;;;;;;;;;26.31;nan;102197.56;5036251;28;19917;-88
2023/04/20 11:25:53;;;;;;;;;;;;;;;26.37;nan;102201.78;5036087;28;19996;-89
2023/04/20 11:28:19;;;;;;;;;;;;;;;26.41;nan;102211.03;5033965;28;19952;-89
2023/04/20 11:30:44;;;;;;;;;;;;;;;26.42;nan;102196.16;5043224;28;19917;-90
2023/04/20 11:33:10;;;;;;;;;;;;;;;26.46;nan;102194.38;5034524;28;20016;-89
2023/04/20 11:35:37;;;;;;;;;;;;;;;26.54;nan;102185.34;5033709;28;20375;-89
2023/04/20 11:38:02;;;;;;;;;;;;;;;26.60;nan;102181.31;5035253;28;20098;-89
2023/04/20 11:40:27;;;;;;;;;;;;;;;26.62;nan;102181.81;5032894;28;20008;-88
2023/04/20 11:42:58;;;;;;;;;;;;;;;26.65;nan;102189.41;5034469;28;19916;-90
2023/04/20 11:45:24;;;;;;;;;;;;;;;26.70;nan;102180.19;5033155;28;19917;-88
2023/04/20 11:47:49;;;;;;;;;;;;;;;26.77;nan;102180.53;5035362;28;19917;-88
2023/04/20 11:50:15;;;;;;;;;;;;;;;26.89;nan;102179.84;5047338;28;19959;-88
2023/04/20 11:52:40;;;;;;;;;;;;;;;27.01;nan;102166.28;5031282;28;19921;-87
2023/04/20 11:55:06;;;;;;;;;;;;;;;27.08;nan;102167.41;5032249;28;20004;-89
2023/04/20 11:57:33;;;;;;;;;;;;;;;27.08;nan;102161.91;5030860;28;19961;-88
2023/04/20 11:59:59;;;;;;;;;;;;;;;27.03;nan;102167.59;5034821;28;19917;-88
2023/04/20 12:02:25;;;;;;;;;;;;;;;27.05;nan;102164.50;5034174;28;19916;-87
2023/04/20 12:04:50;;;;;;;;;;;;;;;27.13;nan;102160.94;5032550;28;20483;-88
2023/04/20 12:07:16;;;;;;;;;;;;;;;27.16;nan;102151.22;5036175;28;19992;-87
2023/04/20 12:09:52;;;;;;;;;;;;;;;27.26;nan;102154.44;5034822;28;19931;-87
2023/04/20 12:12:18;;;;;;;;;;;;;;;27.31;nan;102147.97;5031835;28;19917;-88
2023/04/20 12:14:43;;;;;;;;;;;;;;;27.34;nan;102152.81;5033432;28;19932;-87
2023/04/20 12:17:16;;;;;;;;;;;;;;;27.39;nan;102147.13;5030924;28;19925;-89
2023/04/20 12:19:41;;;;;;;;;;;;;;;27.49;nan;102146.78;5031781;28;19925;-88
2023/04/20 12:22:09;;;;;;;;;;;;;;;27.59;nan;102140.09;5037058;28;20350;-88
2023/04/20 12:24:34;;;;;;;;;;;;;;;27.63;nan;102146.56;5032505;28;19917;-87
2023/04/20 12:27:00;;;;;;;;;;;;;;;27.71;nan;102139.44;5033262;28;19913;-89
2023/04/20 12:29:26;;;;;;;;;;;;;;;27.89;nan;102139.00;5030574;28;19929;-88
2023/04/20 12:31:51;;;;;;;;;;;;;;;27.90;nan;102146.13;5034329;28;19975;-88
2023/04/20 12:34:16;;;;;;;;;;;;;;;27.73;nan;102140.72;5034632;28;20551;-87
2023/04/20 12:36:42;;;;;;;;;;;;;;;27.60;nan;102141.69;5035205;28;19979;-88
2023/04/20 12:39:07;;;;;;;;;;;;;;;27.47;nan;102137.19;5025022;28;19917;-88
2023/04/20 12:41:33;;;;;;;;;;;;;;;27.33;nan;102143.75;5031353;28;20433;-86
2023/04/20 12:43:58;;;;;;;;;;;;;;;27.16;nan;102143.78;5030551;28;20008;-88
2023/04/20 12:46:24;;;;;;;;;;;;;;;27.04;nan;102140.88;5036316;28;19917;-87
2023/04/20 12:48:49;;;;;;;;;;;;;;;26.90;nan;102132.78;5030360;28;20004;-87
2023/04/20 12:51:14;;;;;;;;;;;;;;;26.89;nan;102128.41;5033614;28;20271;-87
2023/04/20 12:53:40;;;;;;;;;;;;;;;26.87;nan;102121.63;5036081;28;19925;-87